sensor_id;sensor_type;location;lat;lon;timestamp;P1;durP1;ratioP1;P2;durP2;ratioP2
18732;SDS011;9495;51.210;2.934;2022-12-07T00:01:30;6.60;;;2.00;;
18732;SDS011;9495;51.210;2.934;2022-12-07T00:04:01;7.17;;;2.40;;
18732;SDS011;9495;51.210;2.934;2022-12-07T00:06:31;10.17;;;2.17;;
18732;SDS011;9495;51.210;2.934;2022-12-07T00:09:00;8.07;;;2.40;;
18732;SDS011;9495;51.210;2.934;2022-12-07T00:11:29;8.63;;;2.30;;
18732;SDS011;9495;51.210;2.934;2022-12-07T00:13:58;9.83;;;2.17;;
18732;SDS011;9495;51.210;2.934;2022-12-07T00:16:28;10.17;;;2.73;;
18732;SDS011;9495;51.210;2.934;2022-12-07T00:18:57;7.43;;;2.23;;
18732;SDS011;9495;51.210;2.934;2022-12-07T00:21:28;10.60;;;2.10;;
18732;SDS011;9495;51.210;2.934;2022-12-07T00:23:58;8.40;;;2.20;;
18732;SDS011;9495;51.210;2.934;2022-12-07T00:26:28;12.87;;;2.20;;
18732;SDS011;9495;51.210;2.934;2022-12-07T00:28:58;6.97;;;2.50;;
18732;SDS011;9495;51.210;2.934;2022-12-07T00:31:27;12.70;;;3.53;;
18732;SDS011;9495;51.210;2.934;2022-12-07T00:33:57;10.53;;;3.53;;
18732;SDS011;9495;51.210;2.934;2022-12-07T00:36:25;15.30;;;2.30;;
18732;SDS011;9495;51.210;2.934;2022-12-07T00:38:57;11.30;;;2.27;;
18732;SDS011;9495;51.210;2.934;2022-12-07T00:41:26;10.87;;;2.47;;
18732;SDS011;9495;51.210;2.934;2022-12-07T00:43:55;7.17;;;2.30;;
18732;SDS011;9495;51.210;2.934;2022-12-07T00:46:24;12.93;;;2.73;;
18732;SDS011;9495;51.210;2.934;2022-12-07T00:48:53;9.07;;;2.07;;
18732;SDS011;9495;51.210;2.934;2022-12-07T00:51:22;9.07;;;2.40;;
18732;SDS011;9495;51.210;2.934;2022-12-07T00:53:53;14.83;;;2.50;;
18732;SDS011;9495;51.210;2.934;2022-12-07T00:56:21;11.57;;;2.23;;
18732;SDS011;9495;51.210;2.934;2022-12-07T00:58:51;7.80;;;2.10;;
18732;SDS011;9495;51.210;2.934;2022-12-07T01:01:22;14.80;;;2.73;;
18732;SDS011;9495;51.210;2.934;2022-12-07T01:03:52;7.93;;;2.13;;
18732;SDS011;9495;51.210;2.934;2022-12-07T01:06:21;6.17;;;2.33;;
18732;SDS011;9495;51.210;2.934;2022-12-07T01:08:49;10.77;;;2.57;;
18732;SDS011;9495;51.210;2.934;2022-12-07T01:11:20;12.33;;;2.03;;
18732;SDS011;9495;51.210;2.934;2022-12-07T01:13:50;8.77;;;2.73;;
18732;SDS011;9495;51.210;2.934;2022-12-07T01:16:19;10.70;;;2.57;;
18732;SDS011;9495;51.210;2.934;2022-12-07T01:18:49;6.03;;;2.40;;
18732;SDS011;9495;51.210;2.934;2022-12-07T01:21:19;9.57;;;2.23;;
18732;SDS011;9495;51.210;2.934;2022-12-07T01:23:49;9.73;;;2.20;;
18732;SDS011;9495;51.210;2.934;2022-12-07T01:26:18;16.37;;;2.47;;
18732;SDS011;9495;51.210;2.934;2022-12-07T01:28:49;18.30;;;2.50;;
18732;SDS011;9495;51.210;2.934;2022-12-07T01:31:19;14.67;;;2.10;;
18732;SDS011;9495;51.210;2.934;2022-12-07T01:33:50;9.07;;;2.13;;
18732;SDS011;9495;51.210;2.934;2022-12-07T01:36:21;13.93;;;1.80;;
18732;SDS011;9495;51.210;2.934;2022-12-07T01:38:51;11.40;;;1.80;;
18732;SDS011;9495;51.210;2.934;2022-12-07T01:41:24;12.77;;;1.60;;
18732;SDS011;9495;51.210;2.934;2022-12-07T01:44:14;17.83;;;1.93;;
18732;SDS011;9495;51.210;2.934;2022-12-07T01:46:45;11.53;;;2.40;;
18732;SDS011;9495;51.210;2.934;2022-12-07T01:49:16;9.63;;;1.40;;
18732;SDS011;9495;51.210;2.934;2022-12-07T01:51:49;8.87;;;1.70;;
18732;SDS011;9495;51.210;2.934;2022-12-07T01:54:21;8.73;;;1.77;;
18732;SDS011;9495;51.210;2.934;2022-12-07T01:56:52;10.10;;;1.70;;
18732;SDS011;9495;51.210;2.934;2022-12-07T01:59:23;7.00;;;1.20;;
18732;SDS011;9495;51.210;2.934;2022-12-07T02:01:53;8.70;;;1.37;;
18732;SDS011;9495;51.210;2.934;2022-12-07T02:04:23;6.40;;;1.30;;
18732;SDS011;9495;51.210;2.934;2022-12-07T02:06:52;5.10;;;1.13;;
18732;SDS011;9495;51.210;2.934;2022-12-07T02:09:21;5.07;;;1.07;;
18732;SDS011;9495;51.210;2.934;2022-12-07T02:11:51;5.43;;;0.80;;
18732;SDS011;9495;51.210;2.934;2022-12-07T02:14:21;5.70;;;0.97;;
18732;SDS011;9495;51.210;2.934;2022-12-07T02:16:53;5.57;;;1.10;;
18732;SDS011;9495;51.210;2.934;2022-12-07T02:19:48;6.53;;;0.90;;
18732;SDS011;9495;51.210;2.934;2022-12-07T02:25:59;5.03;;;0.90;;
18732;SDS011;9495;51.210;2.934;2022-12-07T02:28:47;7.87;;;0.90;;
18732;SDS011;9495;51.210;2.934;2022-12-07T02:31:30;5.13;;;0.93;;
18732;SDS011;9495;51.210;2.934;2022-12-07T02:34:01;6.87;;;1.13;;
18732;SDS011;9495;51.210;2.934;2022-12-07T02:36:37;5.30;;;1.27;;
18732;SDS011;9495;51.210;2.934;2022-12-07T02:39:11;9.67;;;1.13;;
18732;SDS011;9495;51.210;2.934;2022-12-07T02:41:46;7.60;;;1.47;;
18732;SDS011;9495;51.210;2.934;2022-12-07T02:44:18;6.20;;;0.90;;
18732;SDS011;9495;51.210;2.934;2022-12-07T02:46:51;3.00;;;0.73;;
18732;SDS011;9495;51.210;2.934;2022-12-07T02:49:22;5.03;;;0.90;;
18732;SDS011;9495;51.210;2.934;2022-12-07T02:51:52;10.07;;;1.20;;
18732;SDS011;9495;51.210;2.934;2022-12-07T02:54:20;5.70;;;0.80;;
18732;SDS011;9495;51.210;2.934;2022-12-07T02:56:50;8.53;;;0.80;;
18732;SDS011;9495;51.210;2.934;2022-12-07T02:59:25;7.77;;;1.20;;
18732;SDS011;9495;51.210;2.934;2022-12-07T03:02:07;6.30;;;1.03;;
18732;SDS011;9495;51.210;2.934;2022-12-07T03:04:46;6.83;;;1.13;;
18732;SDS011;9495;51.210;2.934;2022-12-07T03:07:28;6.73;;;0.87;;
18732;SDS011;9495;51.210;2.934;2022-12-07T03:10:02;6.10;;;1.10;;
18732;SDS011;9495;51.210;2.934;2022-12-07T03:12:41;5.47;;;1.13;;
18732;SDS011;9495;51.210;2.934;2022-12-07T03:15:14;9.93;;;1.37;;
18732;SDS011;9495;51.210;2.934;2022-12-07T03:17:47;8.33;;;1.17;;
18732;SDS011;9495;51.210;2.934;2022-12-07T03:20:19;7.63;;;1.30;;
18732;SDS011;9495;51.210;2.934;2022-12-07T03:22:49;7.53;;;1.60;;
18732;SDS011;9495;51.210;2.934;2022-12-07T03:25:20;10.70;;;2.33;;
18732;SDS011;9495;51.210;2.934;2022-12-07T03:27:51;7.10;;;1.93;;
18732;SDS011;9495;51.210;2.934;2022-12-07T03:30:24;11.60;;;1.80;;
18732;SDS011;9495;51.210;2.934;2022-12-07T03:32:57;8.23;;;1.63;;
18732;SDS011;9495;51.210;2.934;2022-12-07T03:35:31;11.90;;;1.73;;
18732;SDS011;9495;51.210;2.934;2022-12-07T03:38:04;11.57;;;2.17;;
18732;SDS011;9495;51.210;2.934;2022-12-07T03:40:43;8.40;;;1.80;;
18732;SDS011;9495;51.210;2.934;2022-12-07T03:43:16;10.27;;;2.20;;
18732;SDS011;9495;51.210;2.934;2022-12-07T03:45:50;7.10;;;1.40;;
18732;SDS011;9495;51.210;2.934;2022-12-07T03:48:32;7.43;;;1.70;;
18732;SDS011;9495;51.210;2.934;2022-12-07T03:51:06;5.30;;;1.17;;
18732;SDS011;9495;51.210;2.934;2022-12-07T03:53:43;3.30;;;0.73;;
18732;SDS011;9495;51.210;2.934;2022-12-07T03:56:16;3.23;;;0.63;;
18732;SDS011;9495;51.210;2.934;2022-12-07T03:58:45;4.77;;;1.17;;
18732;SDS011;9495;51.210;2.934;2022-12-07T04:01:17;3.90;;;0.97;;
18732;SDS011;9495;51.210;2.934;2022-12-07T04:03:46;8.43;;;1.47;;
18732;SDS011;9495;51.210;2.934;2022-12-07T04:06:14;5.37;;;1.00;;
18732;SDS011;9495;51.210;2.934;2022-12-07T04:08:43;5.33;;;1.10;;
18732;SDS011;9495;51.210;2.934;2022-12-07T04:11:11;4.47;;;1.10;;
18732;SDS011;9495;51.210;2.934;2022-12-07T04:13:40;8.30;;;1.77;;
18732;SDS011;9495;51.210;2.934;2022-12-07T04:16:27;6.43;;;1.40;;
18732;SDS011;9495;51.210;2.934;2022-12-07T04:18:55;6.43;;;1.10;;
18732;SDS011;9495;51.210;2.934;2022-12-07T04:21:23;3.50;;;1.10;;
18732;SDS011;9495;51.210;2.934;2022-12-07T04:23:52;7.00;;;1.47;;
18732;SDS011;9495;51.210;2.934;2022-12-07T04:26:20;6.60;;;1.00;;
18732;SDS011;9495;51.210;2.934;2022-12-07T04:28:49;5.03;;;1.20;;
18732;SDS011;9495;51.210;2.934;2022-12-07T04:31:17;4.67;;;1.57;;
18732;SDS011;9495;51.210;2.934;2022-12-07T04:33:47;2.23;;;0.93;;
18732;SDS011;9495;51.210;2.934;2022-12-07T04:36:15;5.43;;;1.23;;
18732;SDS011;9495;51.210;2.934;2022-12-07T04:38:46;6.83;;;1.13;;
18732;SDS011;9495;51.210;2.934;2022-12-07T04:41:14;7.27;;;1.20;;
18732;SDS011;9495;51.210;2.934;2022-12-07T04:43:42;13.80;;;1.50;;
18732;SDS011;9495;51.210;2.934;2022-12-07T04:46:11;10.77;;;1.63;;
18732;SDS011;9495;51.210;2.934;2022-12-07T04:48:40;10.50;;;1.60;;
18732;SDS011;9495;51.210;2.934;2022-12-07T04:51:09;10.77;;;1.60;;
18732;SDS011;9495;51.210;2.934;2022-12-07T04:53:38;12.23;;;2.10;;
18732;SDS011;9495;51.210;2.934;2022-12-07T04:56:06;6.10;;;1.30;;
18732;SDS011;9495;51.210;2.934;2022-12-07T04:58:34;9.50;;;1.93;;
18732;SDS011;9495;51.210;2.934;2022-12-07T05:01:03;11.53;;;1.70;;
18732;SDS011;9495;51.210;2.934;2022-12-07T05:03:31;7.33;;;1.33;;
18732;SDS011;9495;51.210;2.934;2022-12-07T05:05:59;4.40;;;1.13;;
18732;SDS011;9495;51.210;2.934;2022-12-07T05:08:29;9.53;;;1.23;;
18732;SDS011;9495;51.210;2.934;2022-12-07T05:10:58;12.43;;;1.40;;
18732;SDS011;9495;51.210;2.934;2022-12-07T05:13:26;8.17;;;1.57;;
18732;SDS011;9495;51.210;2.934;2022-12-07T05:15:55;9.53;;;1.70;;
18732;SDS011;9495;51.210;2.934;2022-12-07T05:18:23;9.13;;;1.47;;
18732;SDS011;9495;51.210;2.934;2022-12-07T05:20:52;9.67;;;1.60;;
18732;SDS011;9495;51.210;2.934;2022-12-07T05:23:20;8.33;;;1.37;;
18732;SDS011;9495;51.210;2.934;2022-12-07T05:25:51;8.73;;;2.00;;
18732;SDS011;9495;51.210;2.934;2022-12-07T05:28:19;15.03;;;1.90;;
18732;SDS011;9495;51.210;2.934;2022-12-07T05:30:47;9.57;;;1.43;;
18732;SDS011;9495;51.210;2.934;2022-12-07T05:33:22;6.77;;;1.43;;
18732;SDS011;9495;51.210;2.934;2022-12-07T05:35:50;12.63;;;1.80;;
18732;SDS011;9495;51.210;2.934;2022-12-07T05:38:18;9.10;;;2.00;;
18732;SDS011;9495;51.210;2.934;2022-12-07T05:40:47;12.07;;;1.77;;
18732;SDS011;9495;51.210;2.934;2022-12-07T05:43:17;10.83;;;2.87;;
18732;SDS011;9495;51.210;2.934;2022-12-07T05:45:44;15.40;;;2.00;;
18732;SDS011;9495;51.210;2.934;2022-12-07T05:48:13;17.43;;;2.03;;
18732;SDS011;9495;51.210;2.934;2022-12-07T05:50:41;19.97;;;2.47;;
18732;SDS011;9495;51.210;2.934;2022-12-07T05:53:09;15.33;;;2.30;;
18732;SDS011;9495;51.210;2.934;2022-12-07T05:55:38;12.73;;;2.07;;
18732;SDS011;9495;51.210;2.934;2022-12-07T05:58:06;17.40;;;3.03;;
18732;SDS011;9495;51.210;2.934;2022-12-07T06:00:55;12.07;;;1.63;;
18732;SDS011;9495;51.210;2.934;2022-12-07T06:03:23;8.37;;;1.07;;
18732;SDS011;9495;51.210;2.934;2022-12-07T06:05:52;13.03;;;1.60;;
18732;SDS011;9495;51.210;2.934;2022-12-07T06:08:21;10.63;;;1.57;;
18732;SDS011;9495;51.210;2.934;2022-12-07T06:10:49;6.33;;;1.30;;
18732;SDS011;9495;51.210;2.934;2022-12-07T06:13:38;7.87;;;1.10;;
18732;SDS011;9495;51.210;2.934;2022-12-07T06:16:13;6.37;;;1.10;;
18732;SDS011;9495;51.210;2.934;2022-12-07T06:18:42;7.13;;;1.10;;
18732;SDS011;9495;51.210;2.934;2022-12-07T06:21:10;6.83;;;0.90;;
18732;SDS011;9495;51.210;2.934;2022-12-07T06:23:39;5.40;;;1.10;;
18732;SDS011;9495;51.210;2.934;2022-12-07T06:26:08;5.90;;;1.00;;
18732;SDS011;9495;51.210;2.934;2022-12-07T06:28:36;6.47;;;1.40;;
18732;SDS011;9495;51.210;2.934;2022-12-07T06:31:04;9.33;;;1.53;;
18732;SDS011;9495;51.210;2.934;2022-12-07T06:33:40;2.90;;;0.97;;
18732;SDS011;9495;51.210;2.934;2022-12-07T06:36:09;7.53;;;1.10;;
18732;SDS011;9495;51.210;2.934;2022-12-07T06:38:38;8.10;;;1.50;;
18732;SDS011;9495;51.210;2.934;2022-12-07T06:41:06;4.00;;;1.17;;
18732;SDS011;9495;51.210;2.934;2022-12-07T06:43:35;7.73;;;1.40;;
18732;SDS011;9495;51.210;2.934;2022-12-07T06:46:03;5.20;;;1.20;;
18732;SDS011;9495;51.210;2.934;2022-12-07T06:48:32;6.97;;;1.60;;
18732;SDS011;9495;51.210;2.934;2022-12-07T06:51:01;6.50;;;1.00;;
18732;SDS011;9495;51.210;2.934;2022-12-07T06:53:30;8.23;;;1.50;;
18732;SDS011;9495;51.210;2.934;2022-12-07T06:55:58;11.70;;;1.70;;
18732;SDS011;9495;51.210;2.934;2022-12-07T06:58:26;10.90;;;1.70;;
18732;SDS011;9495;51.210;2.934;2022-12-07T07:00:55;8.40;;;1.47;;
18732;SDS011;9495;51.210;2.934;2022-12-07T07:03:23;11.57;;;1.50;;
18732;SDS011;9495;51.210;2.934;2022-12-07T07:05:52;13.73;;;2.30;;
18732;SDS011;9495;51.210;2.934;2022-12-07T07:08:21;10.87;;;1.90;;
18732;SDS011;9495;51.210;2.934;2022-12-07T07:10:50;10.17;;;1.43;;
18732;SDS011;9495;51.210;2.934;2022-12-07T07:13:18;11.63;;;1.60;;
18732;SDS011;9495;51.210;2.934;2022-12-07T07:15:47;14.30;;;1.53;;
18732;SDS011;9495;51.210;2.934;2022-12-07T07:18:15;10.87;;;1.40;;
18732;SDS011;9495;51.210;2.934;2022-12-07T07:20:43;11.00;;;1.37;;
18732;SDS011;9495;51.210;2.934;2022-12-07T07:23:12;8.73;;;1.57;;
18732;SDS011;9495;51.210;2.934;2022-12-07T07:25:42;14.80;;;1.50;;
18732;SDS011;9495;51.210;2.934;2022-12-07T07:28:10;13.53;;;1.60;;
18732;SDS011;9495;51.210;2.934;2022-12-07T07:30:39;9.23;;;1.93;;
18732;SDS011;9495;51.210;2.934;2022-12-07T07:33:08;8.03;;;1.33;;
18732;SDS011;9495;51.210;2.934;2022-12-07T07:35:38;10.23;;;1.33;;
18732;SDS011;9495;51.210;2.934;2022-12-07T07:38:07;8.07;;;1.73;;
18732;SDS011;9495;51.210;2.934;2022-12-07T07:40:35;8.90;;;1.50;;
18732;SDS011;9495;51.210;2.934;2022-12-07T07:43:05;12.17;;;1.83;;
18732;SDS011;9495;51.210;2.934;2022-12-07T07:45:33;11.07;;;2.10;;
18732;SDS011;9495;51.210;2.934;2022-12-07T07:48:02;8.50;;;1.80;;
18732;SDS011;9495;51.210;2.934;2022-12-07T07:50:30;13.37;;;2.10;;
18732;SDS011;9495;51.210;2.934;2022-12-07T07:52:59;6.00;;;1.90;;
18732;SDS011;9495;51.210;2.934;2022-12-07T07:55:27;14.93;;;4.00;;
18732;SDS011;9495;51.210;2.934;2022-12-07T07:57:56;18.57;;;3.87;;
18732;SDS011;9495;51.210;2.934;2022-12-07T08:00:26;14.30;;;4.23;;
18732;SDS011;9495;51.210;2.934;2022-12-07T08:02:54;11.00;;;2.70;;
18732;SDS011;9495;51.210;2.934;2022-12-07T08:05:22;9.83;;;1.60;;
18732;SDS011;9495;51.210;2.934;2022-12-07T08:07:51;9.90;;;1.53;;
18732;SDS011;9495;51.210;2.934;2022-12-07T08:10:19;9.50;;;1.60;;
18732;SDS011;9495;51.210;2.934;2022-12-07T08:12:47;9.53;;;1.70;;
18732;SDS011;9495;51.210;2.934;2022-12-07T08:15:35;10.13;;;1.37;;
18732;SDS011;9495;51.210;2.934;2022-12-07T08:18:05;8.83;;;2.07;;
18732;SDS011;9495;51.210;2.934;2022-12-07T08:20:34;12.97;;;1.57;;
18732;SDS011;9495;51.210;2.934;2022-12-07T08:23:04;8.07;;;1.30;;
18732;SDS011;9495;51.210;2.934;2022-12-07T08:25:33;7.97;;;1.60;;
18732;SDS011;9495;51.210;2.934;2022-12-07T08:28:01;7.80;;;1.17;;
18732;SDS011;9495;51.210;2.934;2022-12-07T08:30:30;16.63;;;1.80;;
18732;SDS011;9495;51.210;2.934;2022-12-07T08:33:00;6.30;;;1.43;;
18732;SDS011;9495;51.210;2.934;2022-12-07T08:35:32;11.37;;;1.60;;
18732;SDS011;9495;51.210;2.934;2022-12-07T08:38:00;9.57;;;1.57;;
18732;SDS011;9495;51.210;2.934;2022-12-07T08:40:29;4.57;;;1.30;;
18732;SDS011;9495;51.210;2.934;2022-12-07T08:42:58;4.47;;;1.60;;
18732;SDS011;9495;51.210;2.934;2022-12-07T08:45:26;4.53;;;1.10;;
18732;SDS011;9495;51.210;2.934;2022-12-07T08:47:59;6.47;;;0.90;;
18732;SDS011;9495;51.210;2.934;2022-12-07T08:50:34;9.87;;;0.80;;
18732;SDS011;9495;51.210;2.934;2022-12-07T08:53:11;4.70;;;1.07;;
18732;SDS011;9495;51.210;2.934;2022-12-07T08:55:39;5.80;;;0.80;;
18732;SDS011;9495;51.210;2.934;2022-12-07T08:58:08;3.83;;;0.87;;
18732;SDS011;9495;51.210;2.934;2022-12-07T09:00:36;4.60;;;0.70;;
18732;SDS011;9495;51.210;2.934;2022-12-07T09:03:06;5.10;;;0.97;;
18732;SDS011;9495;51.210;2.934;2022-12-07T09:05:34;7.70;;;0.83;;
18732;SDS011;9495;51.210;2.934;2022-12-07T09:08:03;6.23;;;0.93;;
18732;SDS011;9495;51.210;2.934;2022-12-07T09:10:34;9.80;;;1.20;;
18732;SDS011;9495;51.210;2.934;2022-12-07T09:13:02;9.37;;;1.50;;
18732;SDS011;9495;51.210;2.934;2022-12-07T09:15:31;9.10;;;1.50;;
18732;SDS011;9495;51.210;2.934;2022-12-07T09:17:59;7.83;;;1.70;;
18732;SDS011;9495;51.210;2.934;2022-12-07T09:20:29;8.87;;;1.50;;
18732;SDS011;9495;51.210;2.934;2022-12-07T09:22:57;13.93;;;2.50;;
18732;SDS011;9495;51.210;2.934;2022-12-07T09:25:26;12.53;;;1.63;;
18732;SDS011;9495;51.210;2.934;2022-12-07T09:27:55;5.83;;;1.40;;
18732;SDS011;9495;51.210;2.934;2022-12-07T09:30:24;10.03;;;1.97;;
18732;SDS011;9495;51.210;2.934;2022-12-07T09:32:52;8.67;;;1.70;;
18732;SDS011;9495;51.210;2.934;2022-12-07T09:35:21;13.13;;;1.53;;
18732;SDS011;9495;51.210;2.934;2022-12-07T09:37:52;12.13;;;1.63;;
18732;SDS011;9495;51.210;2.934;2022-12-07T09:40:21;19.43;;;2.40;;
18732;SDS011;9495;51.210;2.934;2022-12-07T09:42:51;18.70;;;2.10;;
18732;SDS011;9495;51.210;2.934;2022-12-07T09:45:22;11.33;;;1.60;;
18732;SDS011;9495;51.210;2.934;2022-12-07T09:47:52;9.50;;;1.60;;
18732;SDS011;9495;51.210;2.934;2022-12-07T09:50:21;9.27;;;1.60;;
18732;SDS011;9495;51.210;2.934;2022-12-07T09:52:55;11.37;;;2.07;;
18732;SDS011;9495;51.210;2.934;2022-12-07T09:55:31;9.10;;;1.63;;
18732;SDS011;9495;51.210;2.934;2022-12-07T09:58:01;10.13;;;1.60;;
18732;SDS011;9495;51.210;2.934;2022-12-07T10:00:29;11.53;;;1.60;;
18732;SDS011;9495;51.210;2.934;2022-12-07T10:02:58;9.30;;;1.30;;
18732;SDS011;9495;51.210;2.934;2022-12-07T10:05:30;10.40;;;1.77;;
18732;SDS011;9495;51.210;2.934;2022-12-07T10:08:04;7.23;;;1.60;;
18732;SDS011;9495;51.210;2.934;2022-12-07T10:10:33;7.60;;;1.47;;
18732;SDS011;9495;51.210;2.934;2022-12-07T10:13:05;9.40;;;1.90;;
18732;SDS011;9495;51.210;2.934;2022-12-07T10:15:42;13.13;;;1.63;;
18732;SDS011;9495;51.210;2.934;2022-12-07T10:18:26;17.20;;;3.07;;
18732;SDS011;9495;51.210;2.934;2022-12-07T10:21:04;10.33;;;2.07;;
18732;SDS011;9495;51.210;2.934;2022-12-07T10:23:39;10.87;;;1.53;;
18732;SDS011;9495;51.210;2.934;2022-12-07T10:29:03;7.77;;;1.10;;
18732;SDS011;9495;51.210;2.934;2022-12-07T10:31:41;10.67;;;1.30;;
18732;SDS011;9495;51.210;2.934;2022-12-07T10:34:15;9.87;;;1.93;;
18732;SDS011;9495;51.210;2.934;2022-12-07T10:36:50;8.37;;;1.20;;
18732;SDS011;9495;51.210;2.934;2022-12-07T10:39:21;3.53;;;1.03;;
18732;SDS011;9495;51.210;2.934;2022-12-07T10:41:54;9.60;;;1.40;;
18732;SDS011;9495;51.210;2.934;2022-12-07T10:44:24;8.70;;;1.63;;
18732;SDS011;9495;51.210;2.934;2022-12-07T10:46:59;5.30;;;1.00;;
18732;SDS011;9495;51.210;2.934;2022-12-07T10:49:57;7.80;;;2.13;;
18732;SDS011;9495;51.210;2.934;2022-12-07T10:52:42;10.90;;;1.60;;
18732;SDS011;9495;51.210;2.934;2022-12-07T10:55:23;10.95;;;1.70;;
18732;SDS011;9495;51.210;2.934;2022-12-07T10:57:59;8.63;;;1.77;;
18732;SDS011;9495;51.210;2.934;2022-12-07T11:00:50;7.30;;;1.60;;
18732;SDS011;9495;51.210;2.934;2022-12-07T11:03:29;9.33;;;2.20;;
18732;SDS011;9495;51.210;2.934;2022-12-07T11:06:12;9.33;;;1.43;;
18732;SDS011;9495;51.210;2.934;2022-12-07T11:08:52;7.03;;;1.47;;
18732;SDS011;9495;51.210;2.934;2022-12-07T11:11:30;9.33;;;1.50;;
18732;SDS011;9495;51.210;2.934;2022-12-07T11:14:04;12.17;;;1.33;;
18732;SDS011;9495;51.210;2.934;2022-12-07T11:16:45;6.30;;;1.20;;
18732;SDS011;9495;51.210;2.934;2022-12-07T11:22:23;8.87;;;1.57;;
18732;SDS011;9495;51.210;2.934;2022-12-07T11:25:00;8.27;;;1.60;;
18732;SDS011;9495;51.210;2.934;2022-12-07T11:27:40;8.97;;;1.83;;
18732;SDS011;9495;51.210;2.934;2022-12-07T11:30:16;6.00;;;1.53;;
18732;SDS011;9495;51.210;2.934;2022-12-07T11:35:45;8.93;;;1.80;;
18732;SDS011;9495;51.210;2.934;2022-12-07T11:38:21;8.63;;;1.63;;
18732;SDS011;9495;51.210;2.934;2022-12-07T11:40:56;9.93;;;1.47;;
18732;SDS011;9495;51.210;2.934;2022-12-07T11:43:45;8.77;;;1.73;;
18732;SDS011;9495;51.210;2.934;2022-12-07T11:46:24;8.50;;;1.63;;
18732;SDS011;9495;51.210;2.934;2022-12-07T11:48:58;8.73;;;1.50;;
18732;SDS011;9495;51.210;2.934;2022-12-07T11:51:31;13.60;;;2.00;;
18732;SDS011;9495;51.210;2.934;2022-12-07T11:54:03;13.13;;;1.97;;
18732;SDS011;9495;51.210;2.934;2022-12-07T11:56:39;7.80;;;1.60;;
18732;SDS011;9495;51.210;2.934;2022-12-07T11:59:09;4.70;;;1.40;;
18732;SDS011;9495;51.210;2.934;2022-12-07T12:01:46;11.03;;;1.70;;
18732;SDS011;9495;51.210;2.934;2022-12-07T12:04:30;10.33;;;2.30;;
18732;SDS011;9495;51.210;2.934;2022-12-07T12:07:10;6.70;;;1.50;;
18732;SDS011;9495;51.210;2.934;2022-12-07T12:10:05;5.07;;;1.50;;
18732;SDS011;9495;51.210;2.934;2022-12-07T12:12:52;10.47;;;1.73;;
18732;SDS011;9495;51.210;2.934;2022-12-07T12:15:57;12.80;;;2.43;;
18732;SDS011;9495;51.210;2.934;2022-12-07T12:18:40;6.63;;;1.60;;
18732;SDS011;9495;51.210;2.934;2022-12-07T12:21:18;11.07;;;1.80;;
18732;SDS011;9495;51.210;2.934;2022-12-07T12:23:51;12.50;;;1.87;;
18732;SDS011;9495;51.210;2.934;2022-12-07T12:26:26;7.30;;;1.87;;
18732;SDS011;9495;51.210;2.934;2022-12-07T12:28:56;6.73;;;1.77;;
18732;SDS011;9495;51.210;2.934;2022-12-07T12:31:35;9.27;;;2.07;;
18732;SDS011;9495;51.210;2.934;2022-12-07T12:36:59;10.30;;;2.00;;
18732;SDS011;9495;51.210;2.934;2022-12-07T12:39:28;6.47;;;1.67;;
18732;SDS011;9495;51.210;2.934;2022-12-07T12:41:57;4.60;;;1.10;;
18732;SDS011;9495;51.210;2.934;2022-12-07T12:44:39;7.03;;;1.80;;
18732;SDS011;9495;51.210;2.934;2022-12-07T12:50:20;4.17;;;1.20;;
18732;SDS011;9495;51.210;2.934;2022-12-07T12:53:01;7.77;;;1.40;;
18732;SDS011;9495;51.210;2.934;2022-12-07T12:55:48;6.13;;;1.30;;
18732;SDS011;9495;51.210;2.934;2022-12-07T12:58:37;6.43;;;1.40;;
18732;SDS011;9495;51.210;2.934;2022-12-07T13:04:01;7.70;;;1.70;;
18732;SDS011;9495;51.210;2.934;2022-12-07T13:06:41;7.07;;;1.93;;
18732;SDS011;9495;51.210;2.934;2022-12-07T13:09:16;6.53;;;2.00;;
18732;SDS011;9495;51.210;2.934;2022-12-07T13:11:48;11.33;;;1.80;;
18732;SDS011;9495;51.210;2.934;2022-12-07T13:17:10;5.27;;;1.60;;
18732;SDS011;9495;51.210;2.934;2022-12-07T13:25:18;7.80;;;1.67;;
18732;SDS011;9495;51.210;2.934;2022-12-07T13:27:54;9.60;;;2.00;;
18732;SDS011;9495;51.210;2.934;2022-12-07T13:30:25;7.93;;;2.17;;
18732;SDS011;9495;51.210;2.934;2022-12-07T13:32:55;9.53;;;1.87;;
18732;SDS011;9495;51.210;2.934;2022-12-07T13:35:31;8.47;;;2.03;;
18732;SDS011;9495;51.210;2.934;2022-12-07T13:38:01;12.43;;;3.73;;
18732;SDS011;9495;51.210;2.934;2022-12-07T13:40:32;10.63;;;2.07;;
18732;SDS011;9495;51.210;2.934;2022-12-07T13:43:01;6.60;;;1.53;;
18732;SDS011;9495;51.210;2.934;2022-12-07T13:45:31;9.80;;;1.73;;
18732;SDS011;9495;51.210;2.934;2022-12-07T13:48:18;11.83;;;2.10;;
18732;SDS011;9495;51.210;2.934;2022-12-07T13:50:54;12.87;;;2.17;;
18732;SDS011;9495;51.210;2.934;2022-12-07T13:53:24;10.90;;;1.77;;
18732;SDS011;9495;51.210;2.934;2022-12-07T13:55:54;12.13;;;1.73;;
18732;SDS011;9495;51.210;2.934;2022-12-07T13:58:23;7.80;;;1.97;;
18732;SDS011;9495;51.210;2.934;2022-12-07T14:00:52;6.90;;;1.70;;
18732;SDS011;9495;51.210;2.934;2022-12-07T14:03:28;8.43;;;1.37;;
18732;SDS011;9495;51.210;2.934;2022-12-07T14:06:10;7.10;;;1.70;;
18732;SDS011;9495;51.210;2.934;2022-12-07T14:08:43;7.27;;;1.93;;
18732;SDS011;9495;51.210;2.934;2022-12-07T14:11:13;9.77;;;2.03;;
18732;SDS011;9495;51.210;2.934;2022-12-07T14:13:47;13.27;;;2.50;;
18732;SDS011;9495;51.210;2.934;2022-12-07T14:16:25;9.23;;;2.60;;
18732;SDS011;9495;51.210;2.934;2022-12-07T14:18:58;17.07;;;2.20;;
18732;SDS011;9495;51.210;2.934;2022-12-07T14:21:30;5.63;;;1.53;;
18732;SDS011;9495;51.210;2.934;2022-12-07T14:24:07;11.53;;;2.13;;
18732;SDS011;9495;51.210;2.934;2022-12-07T14:26:38;8.63;;;2.03;;
18732;SDS011;9495;51.210;2.934;2022-12-07T14:31:59;7.50;;;2.00;;
18732;SDS011;9495;51.210;2.934;2022-12-07T14:34:52;6.33;;;1.80;;
18732;SDS011;9495;51.210;2.934;2022-12-07T14:37:23;4.33;;;1.67;;
18732;SDS011;9495;51.210;2.934;2022-12-07T14:39:51;7.57;;;1.40;;
18732;SDS011;9495;51.210;2.934;2022-12-07T14:42:20;11.93;;;2.10;;
18732;SDS011;9495;51.210;2.934;2022-12-07T14:44:50;8.03;;;1.70;;
18732;SDS011;9495;51.210;2.934;2022-12-07T14:47:18;7.40;;;1.70;;
18732;SDS011;9495;51.210;2.934;2022-12-07T14:50:07;7.73;;;1.80;;
18732;SDS011;9495;51.210;2.934;2022-12-07T14:52:40;8.27;;;1.60;;
18732;SDS011;9495;51.210;2.934;2022-12-07T14:55:30;7.87;;;1.83;;
18732;SDS011;9495;51.210;2.934;2022-12-07T14:57:59;9.53;;;1.73;;
18732;SDS011;9495;51.210;2.934;2022-12-07T15:00:27;10.20;;;1.80;;
18732;SDS011;9495;51.210;2.934;2022-12-07T15:02:56;10.40;;;1.97;;
18732;SDS011;9495;51.210;2.934;2022-12-07T15:05:25;7.63;;;2.17;;
18732;SDS011;9495;51.210;2.934;2022-12-07T15:07:55;10.70;;;2.10;;
18732;SDS011;9495;51.210;2.934;2022-12-07T15:10:24;10.00;;;2.20;;
18732;SDS011;9495;51.210;2.934;2022-12-07T15:12:55;5.93;;;2.10;;
18732;SDS011;9495;51.210;2.934;2022-12-07T15:15:44;6.97;;;2.10;;
18732;SDS011;9495;51.210;2.934;2022-12-07T15:18:13;8.17;;;2.10;;
18732;SDS011;9495;51.210;2.934;2022-12-07T15:20:41;10.57;;;2.23;;
18732;SDS011;9495;51.210;2.934;2022-12-07T15:23:11;10.47;;;2.80;;
18732;SDS011;9495;51.210;2.934;2022-12-07T15:25:40;8.33;;;2.63;;
18732;SDS011;9495;51.210;2.934;2022-12-07T15:28:09;9.60;;;3.07;;
18732;SDS011;9495;51.210;2.934;2022-12-07T15:30:38;8.70;;;3.03;;
18732;SDS011;9495;51.210;2.934;2022-12-07T15:33:07;12.77;;;2.60;;
18732;SDS011;9495;51.210;2.934;2022-12-07T15:35:38;7.13;;;2.27;;
18732;SDS011;9495;51.210;2.934;2022-12-07T15:38:06;12.07;;;2.47;;
18732;SDS011;9495;51.210;2.934;2022-12-07T15:40:36;7.07;;;1.90;;
18732;SDS011;9495;51.210;2.934;2022-12-07T15:43:05;9.90;;;2.47;;
18732;SDS011;9495;51.210;2.934;2022-12-07T15:45:55;5.80;;;1.80;;
18732;SDS011;9495;51.210;2.934;2022-12-07T15:48:23;9.27;;;2.17;;
18732;SDS011;9495;51.210;2.934;2022-12-07T15:50:54;11.70;;;3.20;;
18732;SDS011;9495;51.210;2.934;2022-12-07T15:53:30;19.37;;;4.47;;
18732;SDS011;9495;51.210;2.934;2022-12-07T15:55:59;9.93;;;2.90;;
18732;SDS011;9495;51.210;2.934;2022-12-07T15:58:28;11.83;;;3.30;;
18732;SDS011;9495;51.210;2.934;2022-12-07T16:00:58;9.53;;;3.33;;